createdAt,value
2019-02-06T00:01:55.825Z,94.30
2019-02-06T00:04:28.880Z,94.30
2019-02-06T00:07:01.954Z,94.20
2019-02-06T00:09:34.740Z,94.30
2019-02-06T00:12:07.843Z,94.30
2019-02-06T00:14:40.870Z,94.40
2019-02-06T00:17:14.039Z,94.20
2019-02-06T00:19:46.802Z,94.40
2019-02-06T00:22:19.698Z,94.30
2019-02-06T00:24:52.811Z,94.40
2019-02-06T00:27:26.069Z,94.30
2019-02-06T00:29:59.089Z,94.30
2019-02-06T00:32:32.080Z,94.30
2019-02-06T00:35:04.961Z,94.10
2019-02-06T00:37:37.990Z,94.10
2019-02-06T00:40:10.831Z,94.20
2019-02-06T00:42:43.688Z,94.20
2019-02-06T00:45:16.732Z,94.40
2019-02-06T00:47:50.095Z,94.40
2019-02-06T00:50:23.447Z,94.30
2019-02-06T00:52:56.243Z,94.40
2019-02-06T00:55:29.043Z,94.50
2019-02-06T00:58:01.967Z,94.50
2019-02-06T01:00:34.905Z,94.40
2019-02-06T01:03:07.791Z,94.20
2019-02-06T01:05:41.758Z,94.50
2019-02-06T01:08:14.573Z,94.20
2019-02-06T01:10:47.640Z,94.20
2019-02-06T01:13:21.353Z,94.40
2019-02-06T01:15:54.178Z,94.20
2019-02-06T01:18:27.093Z,94.20
2019-02-06T01:21:00.107Z,94.20
2019-02-06T01:23:32.909Z,94.40
2019-02-06T01:26:06.342Z,94.30
2019-02-06T01:28:39.437Z,94.40
2019-02-06T01:31:20.683Z,94.30
2019-02-06T01:33:53.821Z,94.40
2019-02-06T01:36:27.229Z,94.60
2019-02-06T01:39:00.039Z,94.20
2019-02-06T01:41:33.009Z,94.10
2019-02-06T01:44:06.257Z,94.50
2019-02-06T01:46:39.480Z,93.80
2019-02-06T01:49:12.642Z,93.70
2019-02-06T01:51:45.541Z,94.00
2019-02-06T01:54:19.517Z,93.80
2019-02-06T01:56:52.537Z,93.90
2019-02-06T01:59:25.593Z,93.90
2019-02-06T02:01:58.434Z,93.80
2019-02-06T02:04:31.433Z,93.90
2019-02-06T02:07:04.188Z,93.90
2019-02-06T02:09:36.913Z,93.80
2019-02-06T02:12:09.982Z,93.60
2019-02-06T02:14:43.998Z,93.60
2019-02-06T02:17:17.147Z,93.60
2019-02-06T02:19:50.009Z,93.70
2019-02-06T02:22:23.194Z,93.70
2019-02-06T02:24:56.383Z,93.80
2019-02-06T02:27:29.328Z,93.90
2019-02-06T02:30:04.185Z,93.50
2019-02-06T02:32:37.492Z,93.50
2019-02-06T02:35:10.834Z,93.50
2019-02-06T02:37:43.584Z,93.20
2019-02-06T02:40:16.548Z,93.40
2019-02-06T02:42:49.658Z,93.00
2019-02-06T02:45:22.525Z,93.40
2019-02-06T02:47:55.360Z,93.20
2019-02-06T02:50:28.359Z,93.40
2019-02-06T02:53:01.323Z,93.90
2019-02-06T02:55:34.277Z,94.10
2019-02-06T02:58:07.147Z,94.10
2019-02-06T03:01:02.948Z,94.10
2019-02-06T03:03:39.463Z,94.10
2019-02-06T03:06:12.694Z,94.40
2019-02-06T03:08:45.544Z,94.20
2019-02-06T03:11:18.727Z,94.00
2019-02-06T03:13:51.869Z,94.00
2019-02-06T03:16:24.919Z,94.10
2019-02-06T03:18:58.000Z,94.10
2019-02-06T03:21:31.002Z,94.00
2019-02-06T03:24:03.995Z,94.00
2019-02-06T03:26:36.705Z,94.10
2019-02-06T03:29:09.526Z,94.20
2019-02-06T03:31:42.409Z,94.10
2019-02-06T03:34:15.505Z,93.80
2019-02-06T03:36:48.315Z,93.70
2019-02-06T03:39:21.115Z,93.80
2019-02-06T03:41:54.499Z,93.90
2019-02-06T03:44:27.422Z,93.80
2019-02-06T03:47:00.498Z,93.70
2019-02-06T03:49:33.648Z,93.80
2019-02-06T03:52:06.698Z,93.70
2019-02-06T03:54:39.799Z,93.40
2019-02-06T03:57:12.633Z,93.40
2019-02-06T03:59:45.453Z,93.40
2019-02-06T04:02:18.329Z,93.50
2019-02-06T04:04:51.330Z,93.20
2019-02-06T04:07:24.507Z,93.30
2019-02-06T04:09:57.602Z,93.00
2019-02-06T04:12:30.778Z,93.00
2019-02-06T04:15:03.796Z,92.90
2019-02-06T04:17:36.945Z,93.30
2019-02-06T04:20:10.036Z,93.10
2019-02-06T04:22:42.905Z,93.00
2019-02-06T04:25:15.896Z,92.80
2019-02-06T04:27:48.889Z,93.30
2019-02-06T04:30:21.737Z,92.80
2019-02-06T04:32:54.700Z,92.70
2019-02-06T04:35:27.704Z,92.80
2019-02-06T04:38:00.680Z,93.00
2019-02-06T04:40:33.815Z,92.80
2019-02-06T04:43:06.706Z,93.00
2019-02-06T04:45:39.649Z,93.00
2019-02-06T04:48:12.498Z,92.80
2019-02-06T04:50:45.598Z,92.70
2019-02-06T04:53:18.925Z,92.60
2019-02-06T04:55:51.780Z,92.50
2019-02-06T04:58:24.906Z,92.60
2019-02-06T05:00:57.704Z,92.50
2019-02-06T05:03:30.557Z,92.60
2019-02-06T05:06:03.595Z,92.70
2019-02-06T05:08:37.466Z,92.80
2019-02-06T05:11:10.575Z,92.70
2019-02-06T05:13:43.536Z,92.70
2019-02-06T05:16:16.924Z,92.60
2019-02-06T05:18:49.881Z,92.90
2019-02-06T05:21:22.741Z,92.30
2019-02-06T05:23:55.699Z,92.80
2019-02-06T05:26:28.535Z,92.50
2019-02-06T05:29:01.582Z,92.30
2019-02-06T05:31:34.520Z,92.30
2019-02-06T05:34:07.487Z,92.30
2019-02-06T05:36:40.228Z,92.20
2019-02-06T05:39:13.191Z,92.30
2019-02-06T05:41:46.192Z,92.40
2019-02-06T05:44:20.060Z,91.90
2019-02-06T05:46:52.920Z,91.90
2019-02-06T05:49:25.937Z,92.00
2019-02-06T05:51:58.712Z,91.70
2019-02-06T05:54:32.626Z,91.90
2019-02-06T05:57:05.731Z,91.40
2019-02-06T05:59:38.577Z,91.30
2019-02-06T06:02:11.531Z,91.50
2019-02-06T06:04:44.606Z,91.20
2019-02-06T06:07:17.488Z,91.40
2019-02-06T06:09:50.531Z,91.20
2019-02-06T06:12:23.506Z,91.40
2019-02-06T06:14:56.288Z,90.90
2019-02-06T06:17:29.517Z,91.40
2019-02-06T06:20:02.461Z,91.00
2019-02-06T06:22:35.434Z,91.00
2019-02-06T06:25:08.992Z,91.00
2019-02-06T06:27:42.237Z,91.30
2019-02-06T06:30:16.367Z,90.90
2019-02-06T06:32:49.265Z,91.20
2019-02-06T06:35:22.443Z,91.10
2019-02-06T06:38:00.827Z,90.60
2019-02-06T06:40:30.708Z,90.70
2019-02-06T06:43:03.732Z,90.60
2019-02-06T06:45:37.047Z,90.50
2019-02-06T06:48:10.111Z,90.30
2019-02-06T06:50:43.163Z,91.30
2019-02-06T06:53:16.133Z,90.80
2019-02-06T06:55:49.128Z,90.60
2019-02-06T06:58:22.288Z,90.90
2019-02-06T07:00:55.241Z,90.80
2019-02-06T07:03:28.056Z,90.60
2019-02-06T07:06:00.962Z,90.50
2019-02-06T07:08:34.091Z,90.50
2019-02-06T07:11:06.942Z,90.40
2019-02-06T07:13:39.860Z,90.30
2019-02-06T07:16:13.066Z,90.20
2019-02-06T07:18:46.178Z,90.20
2019-02-06T07:21:18.988Z,90.00
2019-02-06T07:23:51.977Z,89.80
2019-02-06T07:26:24.901Z,89.30
2019-02-06T07:28:57.729Z,89.20
2019-02-06T07:31:30.912Z,88.60
2019-02-06T07:34:04.112Z,88.70
2019-02-06T07:36:37.022Z,87.90
2019-02-06T07:39:10.262Z,88.00
2019-02-06T07:41:43.364Z,88.90
2019-02-06T07:44:16.374Z,87.10
2019-02-06T07:46:49.171Z,86.80
2019-02-06T07:49:23.837Z,87.30
2019-02-06T07:51:56.767Z,86.50
2019-02-06T07:54:29.477Z,86.90
2019-02-06T07:57:02.313Z,85.70
2019-02-06T07:59:35.210Z,85.50
2019-02-06T08:02:08.174Z,84.70
2019-02-06T08:04:41.682Z,84.40
2019-02-06T08:07:14.562Z,83.40
2019-02-06T08:09:47.601Z,82.80
2019-02-06T08:12:20.413Z,82.20
2019-02-06T08:14:53.804Z,81.80
2019-02-06T08:17:26.738Z,80.90
2019-02-06T08:19:59.741Z,82.30
2019-02-06T08:22:33.244Z,80.90
2019-02-06T08:25:06.715Z,80.60
2019-02-06T08:27:39.848Z,80.80
2019-02-06T08:30:30.569Z,80.60
2019-02-06T08:33:03.472Z,79.60
2019-02-06T08:35:36.755Z,79.20
2019-02-06T08:38:09.733Z,79.90
2019-02-06T08:40:42.713Z,79.70
2019-02-06T08:43:15.590Z,78.90
2019-02-06T08:45:48.444Z,79.00
2019-02-06T08:48:21.395Z,79.10
2019-02-06T08:50:54.400Z,78.20
2019-02-06T08:53:27.388Z,79.40
2019-02-06T08:56:00.328Z,77.60
2019-02-06T08:58:33.201Z,78.00
2019-02-06T09:01:06.335Z,77.70
2019-02-06T09:03:39.123Z,77.40
2019-02-06T09:06:13.259Z,76.80
2019-02-06T09:08:46.291Z,77.30
2019-02-06T09:11:19.650Z,76.40
2019-02-06T09:13:53.859Z,76.10
2019-02-06T09:16:26.816Z,76.50
2019-02-06T09:18:59.627Z,76.90
2019-02-06T09:21:32.503Z,76.30
2019-02-06T09:24:05.332Z,75.70
2019-02-06T09:26:38.349Z,76.70
2019-02-06T09:29:11.373Z,75.90
2019-02-06T09:31:44.338Z,75.80
2019-02-06T09:34:17.570Z,74.70
2019-02-06T09:36:50.404Z,74.10
2019-02-06T09:39:23.439Z,73.20
2019-02-06T09:41:56.449Z,72.30
2019-02-06T09:44:29.650Z,73.10
2019-02-06T09:47:02.893Z,73.20
2019-02-06T09:49:35.827Z,72.70
2019-02-06T09:52:08.676Z,71.90
2019-02-06T09:54:41.453Z,71.10
2019-02-06T09:57:14.636Z,70.10
2019-02-06T09:59:47.472Z,70.30
2019-02-06T10:02:20.315Z,70.80
2019-02-06T10:04:53.230Z,70.50
2019-02-06T10:07:26.160Z,71.30
2019-02-06T10:09:59.296Z,70.80
2019-02-06T10:12:32.125Z,70.50
2019-02-06T10:15:05.974Z,72.00
2019-02-06T10:17:38.795Z,71.50
2019-02-06T10:20:14.294Z,70.50
2019-02-06T10:22:48.301Z,69.60
2019-02-06T10:25:21.272Z,69.40
2019-02-06T10:27:54.118Z,69.50
2019-02-06T10:30:32.388Z,69.00
2019-02-06T10:33:05.677Z,68.40
2019-02-06T10:35:38.698Z,68.30
2019-02-06T10:38:11.526Z,68.70
2019-02-06T10:40:44.495Z,66.80
2019-02-06T10:43:17.376Z,66.80
2019-02-06T10:45:50.258Z,67.00
2019-02-06T10:48:23.091Z,67.40
2019-02-06T10:50:58.466Z,65.30
2019-02-06T10:53:30.869Z,64.70
2019-02-06T10:56:04.309Z,64.90
2019-02-06T10:58:37.324Z,63.40
2019-02-06T11:01:10.536Z,62.70
2019-02-06T11:03:43.619Z,60.90
2019-02-06T11:06:16.460Z,62.00
2019-02-06T11:08:49.375Z,61.30
2019-02-06T11:11:22.162Z,61.00
2019-02-06T11:13:55.077Z,59.20
2019-02-06T11:16:28.024Z,58.60
2019-02-06T11:19:00.937Z,58.20
2019-02-06T11:21:33.862Z,58.50
2019-02-06T11:24:06.790Z,58.60
2019-02-06T11:26:39.707Z,56.90
2019-02-06T11:29:12.770Z,58.60
2019-02-06T11:31:45.986Z,56.70
2019-02-06T11:34:18.992Z,57.00
2019-02-06T11:36:52.012Z,57.90
2019-02-06T11:39:24.896Z,55.90
2019-02-06T11:41:57.843Z,55.80
2019-02-06T11:44:30.845Z,56.80
2019-02-06T11:47:03.911Z,55.60
2019-02-06T11:49:38.119Z,55.50
2019-02-06T11:52:11.096Z,55.50
2019-02-06T11:54:44.460Z,54.30
2019-02-06T11:57:17.468Z,54.00
2019-02-06T11:59:53.032Z,54.10
2019-02-06T12:02:36.650Z,56.00
2019-02-06T12:05:00.416Z,53.50
2019-02-06T12:07:33.616Z,54.10
2019-02-06T12:10:10.240Z,53.80
2019-02-06T12:12:43.238Z,55.00
2019-02-06T12:15:17.203Z,54.20
2019-02-06T12:17:50.498Z,53.10
2019-02-06T12:20:23.433Z,52.10
2019-02-06T12:22:56.364Z,52.30
2019-02-06T12:25:29.334Z,52.00
2019-02-06T12:28:05.053Z,51.40
2019-02-06T12:30:38.058Z,51.60
2019-02-06T12:33:11.246Z,51.60
2019-02-06T12:35:43.961Z,51.50
2019-02-06T12:38:17.016Z,50.40
2019-02-06T12:40:50.448Z,50.40
2019-02-06T12:43:23.513Z,52.70
2019-02-06T12:45:56.421Z,50.70
2019-02-06T12:48:29.227Z,49.50
2019-02-06T12:51:02.388Z,50.00
2019-02-06T12:53:35.509Z,50.90
2019-02-06T12:56:08.680Z,50.00
2019-02-06T12:58:41.828Z,49.50
2019-02-06T13:01:14.899Z,50.70
2019-02-06T13:03:48.007Z,50.10
2019-02-06T13:06:20.989Z,50.60
2019-02-06T13:08:53.984Z,50.00
2019-02-06T13:11:27.050Z,50.60
2019-02-06T13:14:00.104Z,50.90
2019-02-06T13:16:33.103Z,49.90
2019-02-06T13:19:06.417Z,50.40
2019-02-06T13:21:39.369Z,49.50
2019-02-06T13:24:12.102Z,51.40
2019-02-06T13:26:45.128Z,51.50
2019-02-06T13:29:18.198Z,50.80
2019-02-06T13:31:51.113Z,51.10
2019-02-06T13:34:24.044Z,51.00
2019-02-06T13:36:56.889Z,51.80
2019-02-06T13:39:30.088Z,51.50
2019-02-06T13:42:05.402Z,50.50
2019-02-06T13:44:38.169Z,49.80
2019-02-06T13:47:11.130Z,50.00
2019-02-06T13:49:46.906Z,49.10
2019-02-06T13:52:19.694Z,50.20
2019-02-06T13:54:52.687Z,49.20
2019-02-06T13:57:33.412Z,49.40
2019-02-06T14:00:00.399Z,49.80
2019-02-06T14:02:33.534Z,50.50
2019-02-06T14:05:06.778Z,50.20
2019-02-06T14:07:39.570Z,50.10
2019-02-06T14:10:14.473Z,50.50
2019-02-06T14:12:47.290Z,51.00
2019-02-06T14:15:21.365Z,49.80
2019-02-06T14:17:54.264Z,51.60
2019-02-06T14:20:27.294Z,51.00
2019-02-06T14:23:03.980Z,49.70
2019-02-06T14:25:46.507Z,49.60
2019-02-06T14:28:44.843Z,50.80
2019-02-06T14:31:59.398Z,49.70
2019-02-06T14:35:13.125Z,49.50
2019-02-06T14:38:30.333Z,50.30
2019-02-06T14:41:43.495Z,49.90
2019-02-06T14:44:42.254Z,50.20
2019-02-06T14:47:55.694Z,50.50
2019-02-06T14:50:53.441Z,50.30
2019-02-06T14:53:49.809Z,50.40
2019-02-06T14:57:02.949Z,49.90
2019-02-06T15:00:11.643Z,50.00
2019-02-06T15:03:25.869Z,49.30
2019-02-06T15:06:20.454Z,49.40
2019-02-06T15:09:31.277Z,50.50
2019-02-06T15:12:49.048Z,50.80
2019-02-06T15:15:36.295Z,50.90
2019-02-06T15:19:09.494Z,50.80
2019-02-06T15:22:28.651Z,50.90
2019-02-06T15:25:15.564Z,51.50
2019-02-06T15:28:39.623Z,51.00
2019-02-06T15:32:09.579Z,51.40
2019-02-06T15:35:14.699Z,52.10
2019-02-06T15:38:02.285Z,51.90
2019-02-06T15:41:30.728Z,51.60
2019-02-06T15:44:50.865Z,52.20
2019-02-06T15:47:55.756Z,53.00
2019-02-06T15:51:09.534Z,52.00
2019-02-06T15:54:19.911Z,53.00
2019-02-06T15:57:56.061Z,52.70
2019-02-06T16:01:12.422Z,52.60
2019-02-06T16:04:32.630Z,52.50
2019-02-06T16:07:38.836Z,53.20
2019-02-06T16:10:56.735Z,54.50
2019-02-06T16:14:00.318Z,54.50
2019-02-06T16:16:55.167Z,54.80
2019-02-06T16:19:53.106Z,55.20
2019-02-06T16:23:01.616Z,54.90
2019-02-06T16:26:06.238Z,55.60
2019-02-06T16:29:11.780Z,54.90
2019-02-06T16:32:29.687Z,55.10
2019-02-06T16:35:59.574Z,55.20
2019-02-06T16:38:41.872Z,55.30
2019-02-06T16:41:56.879Z,56.20
2019-02-06T16:45:23.519Z,56.00
2019-02-06T16:48:50.914Z,56.70
2019-02-06T16:51:54.345Z,56.50
2019-02-06T16:55:04.840Z,58.00
2019-02-06T16:58:20.815Z,59.00
2019-02-06T17:01:22.507Z,57.40
2019-02-06T17:04:32.913Z,57.70
2019-02-06T17:08:02.131Z,58.90
2019-02-06T17:11:19.962Z,57.90
2019-02-06T17:14:34.688Z,58.20
2019-02-06T17:17:23.124Z,58.50
2019-02-06T17:20:40.031Z,58.80
2019-02-06T17:23:55.200Z,58.40
2019-02-06T17:26:38.280Z,59.30
2019-02-06T17:30:08.859Z,59.20
2019-02-06T17:33:18.140Z,60.10
2019-02-06T17:36:30.221Z,60.40
2019-02-06T17:39:35.163Z,60.40
2019-02-06T17:42:28.541Z,60.90
2019-02-06T17:45:34.587Z,61.10
2019-02-06T17:48:53.032Z,62.40
2019-02-06T17:51:53.472Z,62.10
2019-02-06T17:54:59.613Z,62.30
2019-02-06T17:57:32.582Z,63.00
2019-02-06T18:00:13.436Z,63.00
2019-02-06T18:02:46.626Z,63.00
2019-02-06T18:05:19.535Z,64.00
2019-02-06T18:07:52.829Z,65.20
2019-02-06T18:10:26.257Z,65.10
2019-02-06T18:12:59.155Z,64.80
2019-02-06T18:15:32.156Z,65.20
2019-02-06T18:18:05.138Z,65.90
2019-02-06T18:20:38.427Z,65.90
2019-02-06T18:23:11.362Z,66.20
2019-02-06T18:25:44.269Z,66.60
2019-02-06T18:28:17.229Z,67.30
2019-02-06T18:30:50.168Z,67.20
2019-02-06T18:33:23.306Z,68.30
2019-02-06T18:35:56.368Z,67.60
2019-02-06T18:38:32.060Z,68.00
2019-02-06T18:41:04.051Z,68.10
2019-02-06T18:43:37.058Z,68.60
2019-02-06T18:46:10.193Z,68.90
2019-02-06T18:48:43.872Z,69.40
2019-02-06T18:51:16.786Z,69.20
2019-02-06T18:53:49.772Z,69.70
2019-02-06T18:56:23.013Z,70.50
2019-02-06T18:58:56.121Z,69.80
2019-02-06T19:01:29.450Z,70.50
2019-02-06T19:04:03.507Z,70.80
2019-02-06T19:06:36.687Z,70.90
2019-02-06T19:09:12.098Z,71.10
2019-02-06T19:11:44.960Z,72.60
2019-02-06T19:14:18.312Z,72.40
2019-02-06T19:16:51.240Z,73.80
2019-02-06T19:19:25.798Z,73.10
2019-02-06T19:21:58.914Z,73.50
2019-02-06T19:24:32.109Z,73.90
2019-02-06T19:27:05.277Z,73.70
2019-02-06T19:29:39.320Z,74.10
2019-02-06T19:32:12.450Z,75.20
2019-02-06T19:34:45.573Z,76.00
2019-02-06T19:37:18.762Z,75.60
2019-02-06T19:39:51.603Z,76.00
2019-02-06T19:42:24.519Z,76.40
2019-02-06T19:44:57.409Z,77.50
2019-02-06T19:47:30.779Z,76.60
2019-02-06T19:50:07.872Z,77.70
2019-02-06T19:52:41.029Z,78.20
2019-02-06T19:55:13.990Z,76.90
2019-02-06T19:57:48.138Z,78.00
2019-02-06T20:00:24.265Z,78.90
2019-02-06T20:02:57.334Z,78.90
2019-02-06T20:05:30.938Z,79.10
2019-02-06T20:08:04.379Z,79.30
2019-02-06T20:10:40.217Z,79.20
2019-02-06T20:13:14.678Z,79.20
2019-02-06T20:15:48.119Z,80.00
2019-02-06T20:18:21.221Z,79.70
2019-02-06T20:20:54.148Z,79.80
2019-02-06T20:23:27.210Z,80.20
2019-02-06T20:26:00.027Z,80.50
2019-02-06T20:28:32.882Z,81.20
2019-02-06T20:31:06.088Z,81.50
2019-02-06T20:33:39.011Z,81.40
2019-02-06T20:36:12.225Z,81.80
2019-02-06T20:38:45.129Z,82.10
2019-02-06T20:41:18.273Z,82.30
2019-02-06T20:43:51.583Z,82.60
2019-02-06T20:46:24.591Z,82.70
2019-02-06T20:48:57.565Z,82.90
2019-02-06T20:51:31.579Z,83.00
2019-02-06T20:54:04.656Z,83.20
2019-02-06T20:56:37.794Z,83.20
2019-02-06T20:59:10.542Z,83.60
2019-02-06T21:01:43.474Z,83.80
2019-02-06T21:04:16.341Z,84.70
2019-02-06T21:06:49.365Z,84.40
2019-02-06T21:09:22.234Z,84.80
2019-02-06T21:11:55.140Z,84.70
2019-02-06T21:14:28.015Z,85.40
2019-02-06T21:17:00.981Z,86.40
2019-02-06T21:19:34.249Z,86.30
2019-02-06T21:22:07.086Z,86.40
2019-02-06T21:24:40.111Z,86.80
2019-02-06T21:27:12.939Z,87.70
2019-02-06T21:29:46.000Z,88.10
2019-02-06T21:32:19.059Z,88.40
2019-02-06T21:34:51.924Z,88.50
2019-02-06T21:37:27.025Z,88.90
2019-02-06T21:39:59.662Z,88.90
2019-02-06T21:42:32.543Z,89.00
2019-02-06T21:45:05.869Z,89.00
2019-02-06T21:47:38.881Z,89.60
2019-02-06T21:50:13.184Z,89.30
2019-02-06T21:52:46.109Z,89.40
2019-02-06T21:55:19.687Z,89.70
2019-02-06T21:57:52.725Z,89.40
2019-02-06T22:00:27.666Z,89.50
2019-02-06T22:03:00.499Z,89.20
2019-02-06T22:05:33.536Z,89.20
2019-02-06T22:08:06.412Z,89.20
2019-02-06T22:10:39.419Z,89.30
2019-02-06T22:13:12.211Z,88.90
2019-02-06T22:15:45.065Z,89.20
2019-02-06T22:18:18.061Z,88.60
2019-02-06T22:20:51.056Z,88.60
2019-02-06T22:23:23.900Z,88.00
2019-02-06T22:25:56.769Z,88.10
2019-02-06T22:28:29.682Z,87.80
2019-02-06T22:31:02.603Z,87.10
2019-02-06T22:33:35.626Z,86.90
2019-02-06T22:36:08.497Z,87.50
2019-02-06T22:38:41.402Z,86.00
2019-02-06T22:41:14.352Z,85.70
2019-02-06T22:43:47.409Z,85.20
2019-02-06T22:46:20.195Z,84.60
2019-02-06T22:48:52.977Z,84.40
2019-02-06T22:51:25.797Z,83.80
2019-02-06T22:53:58.737Z,83.80
2019-02-06T22:56:31.665Z,83.50
2019-02-06T22:59:04.593Z,83.50
2019-02-06T23:01:47.179Z,83.20
2019-02-06T23:04:20.107Z,82.80
2019-02-06T23:06:53.045Z,82.20
2019-02-06T23:09:25.956Z,81.60
2019-02-06T23:11:58.863Z,81.50
2019-02-06T23:14:31.895Z,81.00
2019-02-06T23:17:04.811Z,80.40
2019-02-06T23:19:37.671Z,80.20
2019-02-06T23:22:11.572Z,80.30
2019-02-06T23:24:44.613Z,79.70
2019-02-06T23:27:17.392Z,79.70
2019-02-06T23:29:50.218Z,80.20
2019-02-06T23:32:23.236Z,78.80
2019-02-06T23:34:56.986Z,79.00
2019-02-06T23:37:29.776Z,78.60
2019-02-06T23:40:02.713Z,78.30
2019-02-06T23:42:35.846Z,78.10
2019-02-06T23:45:08.768Z,77.90
2019-02-06T23:47:41.669Z,77.70
2019-02-06T23:50:14.599Z,77.70
2019-02-06T23:52:47.567Z,76.70
2019-02-06T23:55:20.471Z,76.80
2019-02-06T23:57:53.497Z,77.80
